sensor_id;sensor_type;location;lat;lon;timestamp;P1;durP1;ratioP1;P2;durP2;ratioP2
26562;SDS011;14217;50.986;5.826;2023-11-19T00:01:05;0.13;;;0.10;;
26562;SDS011;14217;50.986;5.826;2023-11-19T00:06:07;0.10;;;0.10;;
26562;SDS011;14217;50.986;5.826;2023-11-19T00:11:11;0.20;;;0.08;;
26562;SDS011;14217;50.986;5.826;2023-11-19T00:16:16;0.45;;;0.10;;
26562;SDS011;14217;50.986;5.826;2023-11-19T00:21:19;0.13;;;0.13;;
26562;SDS011;14217;50.986;5.826;2023-11-19T00:26:21;0.10;;;0.10;;
26562;SDS011;14217;50.986;5.826;2023-11-19T00:31:23;0.20;;;0.10;;
26562;SDS011;14217;50.986;5.826;2023-11-19T00:36:25;0.03;;;0.03;;
26562;SDS011;14217;50.986;5.826;2023-11-19T00:41:27;3.85;;;0.65;;
26562;SDS011;14217;50.986;5.826;2023-11-19T00:46:29;0.03;;;0.00;;
26562;SDS011;14217;50.986;5.826;2023-11-19T00:51:31;0.28;;;0.28;;
26562;SDS011;14217;50.986;5.826;2023-11-19T00:56:33;0.00;;;0.00;;
26562;SDS011;14217;50.986;5.826;2023-11-19T01:01:35;0.10;;;0.10;;
26562;SDS011;14217;50.986;5.826;2023-11-19T01:06:37;0.30;;;0.10;;
26562;SDS011;14217;50.986;5.826;2023-11-19T01:11:49;0.10;;;0.10;;
26562;SDS011;14217;50.986;5.826;2023-11-19T01:16:52;0.15;;;0.08;;
26562;SDS011;14217;50.986;5.826;2023-11-19T01:21:56;0.17;;;0.10;;
26562;SDS011;14217;50.986;5.826;2023-11-19T01:26:58;0.20;;;0.10;;
26562;SDS011;14217;50.986;5.826;2023-11-19T01:32:01;0.10;;;0.05;;
26562;SDS011;14217;50.986;5.826;2023-11-19T01:37:03;0.10;;;0.10;;
26562;SDS011;14217;50.986;5.826;2023-11-19T01:42:06;0.22;;;0.10;;
26562;SDS011;14217;50.986;5.826;2023-11-19T01:47:08;0.80;;;0.10;;
26562;SDS011;14217;50.986;5.826;2023-11-19T01:52:10;0.17;;;0.10;;
26562;SDS011;14217;50.986;5.826;2023-11-19T01:57:12;0.10;;;0.10;;
26562;SDS011;14217;50.986;5.826;2023-11-19T02:02:15;0.30;;;0.10;;
26562;SDS011;14217;50.986;5.826;2023-11-19T02:07:19;0.10;;;0.10;;
26562;SDS011;14217;50.986;5.826;2023-11-19T02:12:22;0.43;;;0.10;;
26562;SDS011;14217;50.986;5.826;2023-11-19T02:17:27;0.10;;;0.10;;
26562;SDS011;14217;50.986;5.826;2023-11-19T02:22:30;1.45;;;0.28;;
26562;SDS011;14217;50.986;5.826;2023-11-19T02:33:01;0.10;;;0.10;;
26562;SDS011;14217;50.986;5.826;2023-11-19T02:38:07;0.10;;;0.10;;
26562;SDS011;14217;50.986;5.826;2023-11-19T02:43:10;0.20;;;0.20;;
26562;SDS011;14217;50.986;5.826;2023-11-19T02:48:12;1.38;;;0.20;;
26562;SDS011;14217;50.986;5.826;2023-11-19T02:53:16;0.93;;;0.30;;
26562;SDS011;14217;50.986;5.826;2023-11-19T02:58:18;0.68;;;0.20;;
26562;SDS011;14217;50.986;5.826;2023-11-19T03:03:25;0.47;;;0.28;;
26562;SDS011;14217;50.986;5.826;2023-11-19T03:08:40;0.73;;;0.30;;
26562;SDS011;14217;50.986;5.826;2023-11-19T03:13:42;0.20;;;0.20;;
26562;SDS011;14217;50.986;5.826;2023-11-19T03:18:44;0.20;;;0.10;;
26562;SDS011;14217;50.986;5.826;2023-11-19T03:23:46;1.02;;;0.20;;
26562;SDS011;14217;50.986;5.826;2023-11-19T03:28:48;0.57;;;0.15;;
26562;SDS011;14217;50.986;5.826;2023-11-19T03:33:50;0.90;;;0.52;;
26562;SDS011;14217;50.986;5.826;2023-11-19T03:38:52;2.40;;;0.20;;
26562;SDS011;14217;50.986;5.826;2023-11-19T03:43:54;0.98;;;0.25;;
26562;SDS011;14217;50.986;5.826;2023-11-19T03:48:57;1.50;;;0.22;;
26562;SDS011;14217;50.986;5.826;2023-11-19T03:54:00;0.80;;;0.50;;
26562;SDS011;14217;50.986;5.826;2023-11-19T03:59:02;0.60;;;0.25;;
26562;SDS011;14217;50.986;5.826;2023-11-19T04:04:04;2.40;;;0.57;;
26562;SDS011;14217;50.986;5.826;2023-11-19T04:09:07;0.68;;;0.40;;
26562;SDS011;14217;50.986;5.826;2023-11-19T04:14:10;0.70;;;0.30;;
26562;SDS011;14217;50.986;5.826;2023-11-19T04:19:13;0.50;;;0.20;;
26562;SDS011;14217;50.986;5.826;2023-11-19T04:24:15;1.50;;;0.30;;
26562;SDS011;14217;50.986;5.826;2023-11-19T04:29:17;0.45;;;0.28;;
26562;SDS011;14217;50.986;5.826;2023-11-19T04:34:19;0.90;;;0.30;;
26562;SDS011;14217;50.986;5.826;2023-11-19T04:39:22;0.57;;;0.40;;
26562;SDS011;14217;50.986;5.826;2023-11-19T04:44:24;0.75;;;0.65;;
26562;SDS011;14217;50.986;5.826;2023-11-19T04:49:26;1.20;;;0.35;;
26562;SDS011;14217;50.986;5.826;2023-11-19T04:54:29;1.75;;;0.40;;
26562;SDS011;14217;50.986;5.826;2023-11-19T04:59:33;3.83;;;0.70;;
26562;SDS011;14217;50.986;5.826;2023-11-19T05:04:36;1.80;;;0.40;;
26562;SDS011;14217;50.986;5.826;2023-11-19T05:09:39;3.92;;;0.50;;
26562;SDS011;14217;50.986;5.826;2023-11-19T05:14:42;1.13;;;0.60;;
26562;SDS011;14217;50.986;5.826;2023-11-19T05:19:51;1.05;;;0.65;;
26562;SDS011;14217;50.986;5.826;2023-11-19T05:24:53;0.47;;;0.38;;
26562;SDS011;14217;50.986;5.826;2023-11-19T05:29:55;1.90;;;0.80;;
26562;SDS011;14217;50.986;5.826;2023-11-19T05:34:57;1.05;;;0.50;;
26562;SDS011;14217;50.986;5.826;2023-11-19T05:39:59;1.10;;;0.20;;
26562;SDS011;14217;50.986;5.826;2023-11-19T05:45:04;0.35;;;0.30;;
26562;SDS011;14217;50.986;5.826;2023-11-19T05:50:07;1.08;;;0.40;;
26562;SDS011;14217;50.986;5.826;2023-11-19T05:55:10;0.75;;;0.55;;
26562;SDS011;14217;50.986;5.826;2023-11-19T06:00:12;1.05;;;0.30;;
26562;SDS011;14217;50.986;5.826;2023-11-19T06:05:17;1.52;;;0.60;;
26562;SDS011;14217;50.986;5.826;2023-11-19T06:10:19;2.15;;;0.63;;
26562;SDS011;14217;50.986;5.826;2023-11-19T06:15:22;1.00;;;0.63;;
26562;SDS011;14217;50.986;5.826;2023-11-19T06:20:24;3.53;;;0.60;;
26562;SDS011;14217;50.986;5.826;2023-11-19T06:25:27;2.05;;;0.50;;
26562;SDS011;14217;50.986;5.826;2023-11-19T06:30:29;1.90;;;0.70;;
26562;SDS011;14217;50.986;5.826;2023-11-19T06:35:32;1.10;;;0.50;;
26562;SDS011;14217;50.986;5.826;2023-11-19T06:40:38;1.52;;;0.40;;
26562;SDS011;14217;50.986;5.826;2023-11-19T06:45:41;2.03;;;0.30;;
26562;SDS011;14217;50.986;5.826;2023-11-19T06:50:43;1.35;;;0.50;;
26562;SDS011;14217;50.986;5.826;2023-11-19T06:55:45;0.88;;;0.32;;
26562;SDS011;14217;50.986;5.826;2023-11-19T07:00:47;1.52;;;0.40;;
26562;SDS011;14217;50.986;5.826;2023-11-19T07:05:51;0.80;;;0.55;;
26562;SDS011;14217;50.986;5.826;2023-11-19T07:10:53;1.65;;;0.63;;
26562;SDS011;14217;50.986;5.826;2023-11-19T07:15:56;1.77;;;0.50;;
26562;SDS011;14217;50.986;5.826;2023-11-19T07:20:58;1.83;;;0.45;;
26562;SDS011;14217;50.986;5.826;2023-11-19T07:26:01;1.55;;;0.60;;
26562;SDS011;14217;50.986;5.826;2023-11-19T07:31:06;1.45;;;0.50;;
26562;SDS011;14217;50.986;5.826;2023-11-19T07:36:11;3.17;;;0.73;;
26562;SDS011;14217;50.986;5.826;2023-11-19T07:41:14;0.90;;;0.40;;
26562;SDS011;14217;50.986;5.826;2023-11-19T07:46:16;1.27;;;0.50;;
26562;SDS011;14217;50.986;5.826;2023-11-19T07:51:21;3.85;;;0.65;;
26562;SDS011;14217;50.986;5.826;2023-11-19T07:56:23;2.45;;;0.73;;
26562;SDS011;14217;50.986;5.826;2023-11-19T08:01:25;0.85;;;0.50;;
26562;SDS011;14217;50.986;5.826;2023-11-19T08:06:27;0.95;;;0.52;;
26562;SDS011;14217;50.986;5.826;2023-11-19T08:11:29;1.45;;;0.65;;
26562;SDS011;14217;50.986;5.826;2023-11-19T08:16:31;2.75;;;0.77;;
26562;SDS011;14217;50.986;5.826;2023-11-19T08:21:33;1.73;;;0.60;;
26562;SDS011;14217;50.986;5.826;2023-11-19T08:26:35;3.85;;;1.20;;
26562;SDS011;14217;50.986;5.826;2023-11-19T08:31:37;1.88;;;0.43;;
26562;SDS011;14217;50.986;5.826;2023-11-19T08:36:39;1.05;;;0.45;;
26562;SDS011;14217;50.986;5.826;2023-11-19T08:41:42;2.40;;;0.90;;
26562;SDS011;14217;50.986;5.826;2023-11-19T08:46:50;2.63;;;0.60;;
26562;SDS011;14217;50.986;5.826;2023-11-19T08:51:52;1.42;;;0.52;;
26562;SDS011;14217;50.986;5.826;2023-11-19T08:56:54;4.18;;;1.08;;
26562;SDS011;14217;50.986;5.826;2023-11-19T09:01:56;2.33;;;0.80;;
26562;SDS011;14217;50.986;5.826;2023-11-19T09:07:01;3.55;;;1.00;;
26562;SDS011;14217;50.986;5.826;2023-11-19T09:12:04;2.65;;;0.80;;
26562;SDS011;14217;50.986;5.826;2023-11-19T09:17:06;3.45;;;0.77;;
26562;SDS011;14217;50.986;5.826;2023-11-19T09:22:09;11.98;;;1.30;;
26562;SDS011;14217;50.986;5.826;2023-11-19T09:27:11;2.35;;;1.17;;
26562;SDS011;14217;50.986;5.826;2023-11-19T09:32:13;4.07;;;1.33;;
26562;SDS011;14217;50.986;5.826;2023-11-19T09:37:15;10.13;;;2.38;;
26562;SDS011;14217;50.986;5.826;2023-11-19T09:42:20;6.57;;;1.38;;
26562;SDS011;14217;50.986;5.826;2023-11-19T09:47:22;9.98;;;1.90;;
26562;SDS011;14217;50.986;5.826;2023-11-19T09:52:25;9.10;;;1.98;;
26562;SDS011;14217;50.986;5.826;2023-11-19T09:57:27;5.15;;;0.80;;
26562;SDS011;14217;50.986;5.826;2023-11-19T10:02:34;6.00;;;1.77;;
26562;SDS011;14217;50.986;5.826;2023-11-19T10:07:38;4.05;;;1.00;;
26562;SDS011;14217;50.986;5.826;2023-11-19T10:12:40;4.43;;;1.13;;
26562;SDS011;14217;50.986;5.826;2023-11-19T10:17:58;5.60;;;1.50;;
26562;SDS011;14217;50.986;5.826;2023-11-19T10:23:00;7.40;;;1.30;;
26562;SDS011;14217;50.986;5.826;2023-11-19T10:28:02;17.52;;;2.55;;
26562;SDS011;14217;50.986;5.826;2023-11-19T10:38:13;5.93;;;1.42;;
26562;SDS011;14217;50.986;5.826;2023-11-19T10:43:19;7.47;;;2.08;;
26562;SDS011;14217;50.986;5.826;2023-11-19T10:48:24;7.05;;;1.77;;
26562;SDS011;14217;50.986;5.826;2023-11-19T10:53:27;5.82;;;1.35;;
26562;SDS011;14217;50.986;5.826;2023-11-19T10:58:32;3.65;;;1.58;;
26562;SDS011;14217;50.986;5.826;2023-11-19T11:03:38;3.40;;;1.15;;
26562;SDS011;14217;50.986;5.826;2023-11-19T11:08:42;5.90;;;1.58;;
26562;SDS011;14217;50.986;5.826;2023-11-19T11:13:44;5.13;;;1.60;;
26562;SDS011;14217;50.986;5.826;2023-11-19T11:18:49;2.97;;;1.33;;
26562;SDS011;14217;50.986;5.826;2023-11-19T11:40:15;6.75;;;2.28;;
26562;SDS011;14217;50.986;5.826;2023-11-19T11:45:17;7.35;;;2.03;;
26562;SDS011;14217;50.986;5.826;2023-11-19T11:50:50;9.38;;;2.58;;
26562;SDS011;14217;50.986;5.826;2023-11-19T11:55:57;7.15;;;1.77;;
26562;SDS011;14217;50.986;5.826;2023-11-19T12:01:01;5.50;;;1.77;;
26562;SDS011;14217;50.986;5.826;2023-11-19T12:06:04;5.38;;;1.25;;
26562;SDS011;14217;50.986;5.826;2023-11-19T12:11:06;7.20;;;1.52;;
26562;SDS011;14217;50.986;5.826;2023-11-19T12:16:10;13.23;;;2.05;;
26562;SDS011;14217;50.986;5.826;2023-11-19T12:21:27;7.90;;;1.63;;
26562;SDS011;14217;50.986;5.826;2023-11-19T12:26:34;7.85;;;1.67;;
26562;SDS011;14217;50.986;5.826;2023-11-19T12:31:36;2.67;;;1.17;;
26562;SDS011;14217;50.986;5.826;2023-11-19T12:36:39;3.25;;;1.30;;
26562;SDS011;14217;50.986;5.826;2023-11-19T12:42:00;8.00;;;1.38;;
26562;SDS011;14217;50.986;5.826;2023-11-19T12:47:03;4.13;;;1.67;;
26562;SDS011;14217;50.986;5.826;2023-11-19T12:52:13;5.95;;;1.88;;
26562;SDS011;14217;50.986;5.826;2023-11-19T12:57:15;5.60;;;1.88;;
26562;SDS011;14217;50.986;5.826;2023-11-19T13:02:17;4.45;;;2.03;;
26562;SDS011;14217;50.986;5.826;2023-11-19T13:07:20;10.68;;;1.27;;
26562;SDS011;14217;50.986;5.826;2023-11-19T13:12:23;4.22;;;1.48;;
26562;SDS011;14217;50.986;5.826;2023-11-19T13:17:25;6.13;;;2.22;;
26562;SDS011;14217;50.986;5.826;2023-11-19T13:22:28;7.60;;;2.22;;
26562;SDS011;14217;50.986;5.826;2023-11-19T13:27:29;5.90;;;1.98;;
26562;SDS011;14217;50.986;5.826;2023-11-19T13:32:32;2.85;;;1.30;;
26562;SDS011;14217;50.986;5.826;2023-11-19T13:37:34;7.10;;;0.95;;
26562;SDS011;14217;50.986;5.826;2023-11-19T13:42:36;4.38;;;1.63;;
26562;SDS011;14217;50.986;5.826;2023-11-19T13:47:45;3.90;;;1.38;;
26562;SDS011;14217;50.986;5.826;2023-11-19T13:52:48;3.03;;;1.08;;
26562;SDS011;14217;50.986;5.826;2023-11-19T13:57:50;5.68;;;1.15;;
26562;SDS011;14217;50.986;5.826;2023-11-19T14:02:52;4.22;;;1.13;;
26562;SDS011;14217;50.986;5.826;2023-11-19T14:07:54;2.40;;;0.98;;
26562;SDS011;14217;50.986;5.826;2023-11-19T14:12:58;4.35;;;0.98;;
26562;SDS011;14217;50.986;5.826;2023-11-19T14:18:00;6.93;;;2.05;;
26562;SDS011;14217;50.986;5.826;2023-11-19T14:23:02;3.85;;;1.40;;
26562;SDS011;14217;50.986;5.826;2023-11-19T14:28:04;2.95;;;1.58;;
26562;SDS011;14217;50.986;5.826;2023-11-19T14:33:07;2.85;;;1.02;;
26562;SDS011;14217;50.986;5.826;2023-11-19T14:38:09;4.03;;;1.60;;
26562;SDS011;14217;50.986;5.826;2023-11-19T14:43:11;5.85;;;1.40;;
26562;SDS011;14217;50.986;5.826;2023-11-19T14:48:13;2.13;;;0.73;;
26562;SDS011;14217;50.986;5.826;2023-11-19T14:53:16;3.00;;;1.08;;
26562;SDS011;14217;50.986;5.826;2023-11-19T14:58:18;3.15;;;1.15;;
26562;SDS011;14217;50.986;5.826;2023-11-19T15:03:20;5.55;;;1.15;;
26562;SDS011;14217;50.986;5.826;2023-11-19T15:08:22;3.35;;;1.33;;
26562;SDS011;14217;50.986;5.826;2023-11-19T15:13:24;2.65;;;0.98;;
26562;SDS011;14217;50.986;5.826;2023-11-19T15:18:26;3.20;;;1.15;;
26562;SDS011;14217;50.986;5.826;2023-11-19T15:23:29;4.20;;;0.85;;
26562;SDS011;14217;50.986;5.826;2023-11-19T15:28:31;1.83;;;0.95;;
26562;SDS011;14217;50.986;5.826;2023-11-19T15:33:33;1.83;;;0.90;;
26562;SDS011;14217;50.986;5.826;2023-11-19T15:38:35;2.75;;;0.85;;
26562;SDS011;14217;50.986;5.826;2023-11-19T15:43:53;4.07;;;1.08;;
26562;SDS011;14217;50.986;5.826;2023-11-19T15:48:56;2.03;;;0.70;;
26562;SDS011;14217;50.986;5.826;2023-11-19T15:53:58;3.95;;;1.27;;
26562;SDS011;14217;50.986;5.826;2023-11-19T15:59:00;3.03;;;0.88;;
26562;SDS011;14217;50.986;5.826;2023-11-19T16:04:02;3.17;;;1.00;;
26562;SDS011;14217;50.986;5.826;2023-11-19T16:09:05;2.65;;;1.00;;
26562;SDS011;14217;50.986;5.826;2023-11-19T16:14:07;2.47;;;0.90;;
26562;SDS011;14217;50.986;5.826;2023-11-19T16:19:09;3.65;;;0.98;;
26562;SDS011;14217;50.986;5.826;2023-11-19T16:24:11;3.15;;;0.93;;
26562;SDS011;14217;50.986;5.826;2023-11-19T16:29:13;2.50;;;1.40;;
26562;SDS011;14217;50.986;5.826;2023-11-19T16:34:15;5.47;;;1.02;;
26562;SDS011;14217;50.986;5.826;2023-11-19T16:39:17;4.05;;;1.17;;
26562;SDS011;14217;50.986;5.826;2023-11-19T16:44:19;4.78;;;1.08;;
26562;SDS011;14217;50.986;5.826;2023-11-19T16:49:21;3.70;;;1.27;;
26562;SDS011;14217;50.986;5.826;2023-11-19T16:54:24;2.33;;;0.73;;
26562;SDS011;14217;50.986;5.826;2023-11-19T16:59:26;3.95;;;1.27;;
26562;SDS011;14217;50.986;5.826;2023-11-19T17:04:28;3.42;;;1.35;;
26562;SDS011;14217;50.986;5.826;2023-11-19T17:09:30;1.88;;;0.85;;
26562;SDS011;14217;50.986;5.826;2023-11-19T17:14:33;3.63;;;0.90;;
26562;SDS011;14217;50.986;5.826;2023-11-19T17:19:40;2.65;;;0.60;;
26562;SDS011;14217;50.986;5.826;2023-11-19T17:24:43;3.75;;;0.82;;
26562;SDS011;14217;50.986;5.826;2023-11-19T17:29:45;3.42;;;1.33;;
26562;SDS011;14217;50.986;5.826;2023-11-19T17:34:47;3.17;;;1.15;;
26562;SDS011;14217;50.986;5.826;2023-11-19T17:39:50;3.65;;;0.90;;
26562;SDS011;14217;50.986;5.826;2023-11-19T17:44:53;1.77;;;0.50;;
26562;SDS011;14217;50.986;5.826;2023-11-19T17:50:00;4.00;;;0.93;;
26562;SDS011;14217;50.986;5.826;2023-11-19T17:55:24;2.45;;;0.77;;
26562;SDS011;14217;50.986;5.826;2023-11-19T18:00:26;3.53;;;0.73;;
26562;SDS011;14217;50.986;5.826;2023-11-19T18:05:29;1.95;;;0.93;;
26562;SDS011;14217;50.986;5.826;2023-11-19T18:10:31;4.45;;;1.05;;
26562;SDS011;14217;50.986;5.826;2023-11-19T18:15:35;2.80;;;0.82;;
26562;SDS011;14217;50.986;5.826;2023-11-19T18:20:38;2.45;;;0.63;;
26562;SDS011;14217;50.986;5.826;2023-11-19T18:25:40;7.13;;;1.05;;
26562;SDS011;14217;50.986;5.826;2023-11-19T18:30:42;6.93;;;1.23;;
26562;SDS011;14217;50.986;5.826;2023-11-19T18:35:44;5.65;;;1.00;;
26562;SDS011;14217;50.986;5.826;2023-11-19T18:40:46;4.60;;;1.05;;
26562;SDS011;14217;50.986;5.826;2023-11-19T18:45:48;13.07;;;1.25;;
26562;SDS011;14217;50.986;5.826;2023-11-19T18:50:50;2.55;;;1.20;;
26562;SDS011;14217;50.986;5.826;2023-11-19T18:55:53;2.92;;;1.02;;
26562;SDS011;14217;50.986;5.826;2023-11-19T19:00:56;4.13;;;0.98;;
26562;SDS011;14217;50.986;5.826;2023-11-19T19:05:58;2.17;;;0.77;;
26562;SDS011;14217;50.986;5.826;2023-11-19T19:11:00;4.47;;;0.80;;
26562;SDS011;14217;50.986;5.826;2023-11-19T19:16:06;4.22;;;0.85;;
26562;SDS011;14217;50.986;5.826;2023-11-19T19:21:09;3.08;;;0.90;;
26562;SDS011;14217;50.986;5.826;2023-11-19T19:26:12;6.55;;;1.25;;
26562;SDS011;14217;50.986;5.826;2023-11-19T19:31:14;3.05;;;1.15;;
26562;SDS011;14217;50.986;5.826;2023-11-19T19:36:20;3.00;;;1.00;;
26562;SDS011;14217;50.986;5.826;2023-11-19T19:41:23;1.42;;;0.63;;
26562;SDS011;14217;50.986;5.826;2023-11-19T19:46:25;3.72;;;1.00;;
26562;SDS011;14217;50.986;5.826;2023-11-19T19:51:29;6.25;;;1.17;;
26562;SDS011;14217;50.986;5.826;2023-11-19T19:56:32;8.52;;;1.27;;
26562;SDS011;14217;50.986;5.826;2023-11-19T20:01:34;10.23;;;1.88;;
26562;SDS011;14217;50.986;5.826;2023-11-19T20:06:37;3.90;;;0.93;;
26562;SDS011;14217;50.986;5.826;2023-11-19T20:11:40;6.68;;;1.10;;
26562;SDS011;14217;50.986;5.826;2023-11-19T20:16:45;4.93;;;1.10;;
26562;SDS011;14217;50.986;5.826;2023-11-19T20:21:47;6.63;;;1.45;;
26562;SDS011;14217;50.986;5.826;2023-11-19T20:26:49;5.07;;;1.20;;
26562;SDS011;14217;50.986;5.826;2023-11-19T20:31:55;6.28;;;1.42;;
26562;SDS011;14217;50.986;5.826;2023-11-19T20:36:57;6.35;;;1.88;;
26562;SDS011;14217;50.986;5.826;2023-11-19T20:41:59;7.53;;;2.00;;
26562;SDS011;14217;50.986;5.826;2023-11-19T20:47:02;2.90;;;0.98;;
26562;SDS011;14217;50.986;5.826;2023-11-19T20:52:06;8.63;;;1.35;;
26562;SDS011;14217;50.986;5.826;2023-11-19T20:57:09;3.97;;;0.95;;
26562;SDS011;14217;50.986;5.826;2023-11-19T21:02:13;4.80;;;1.00;;
26562;SDS011;14217;50.986;5.826;2023-11-19T21:07:16;5.30;;;0.70;;
26562;SDS011;14217;50.986;5.826;2023-11-19T21:12:19;3.30;;;1.10;;
26562;SDS011;14217;50.986;5.826;2023-11-19T21:17:21;4.50;;;1.02;;
26562;SDS011;14217;50.986;5.826;2023-11-19T21:22:24;10.23;;;1.15;;
26562;SDS011;14217;50.986;5.826;2023-11-19T21:27:26;5.65;;;0.75;;
26562;SDS011;14217;50.986;5.826;2023-11-19T21:32:31;1.52;;;0.43;;
26562;SDS011;14217;50.986;5.826;2023-11-19T21:37:34;2.28;;;0.55;;
26562;SDS011;14217;50.986;5.826;2023-11-19T21:42:36;3.20;;;0.68;;
26562;SDS011;14217;50.986;5.826;2023-11-19T21:47:39;2.60;;;0.50;;
26562;SDS011;14217;50.986;5.826;2023-11-19T21:52:41;2.38;;;0.85;;
26562;SDS011;14217;50.986;5.826;2023-11-19T21:57:43;1.90;;;0.80;;
26562;SDS011;14217;50.986;5.826;2023-11-19T22:02:45;1.83;;;0.60;;
26562;SDS011;14217;50.986;5.826;2023-11-19T22:07:47;3.17;;;0.60;;
26562;SDS011;14217;50.986;5.826;2023-11-19T22:12:49;3.17;;;0.43;;
26562;SDS011;14217;50.986;5.826;2023-11-19T22:17:51;1.50;;;0.93;;
26562;SDS011;14217;50.986;5.826;2023-11-19T22:22:54;2.75;;;0.73;;
26562;SDS011;14217;50.986;5.826;2023-11-19T22:27:57;3.67;;;0.93;;
26562;SDS011;14217;50.986;5.826;2023-11-19T22:32:59;2.25;;;0.68;;
26562;SDS011;14217;50.986;5.826;2023-11-19T22:38:01;6.50;;;0.57;;
26562;SDS011;14217;50.986;5.826;2023-11-19T22:43:04;2.22;;;0.43;;
26562;SDS011;14217;50.986;5.826;2023-11-19T22:48:06;1.13;;;0.50;;
26562;SDS011;14217;50.986;5.826;2023-11-19T22:53:08;3.72;;;0.50;;
26562;SDS011;14217;50.986;5.826;2023-11-19T22:58:10;8.27;;;0.40;;
26562;SDS011;14217;50.986;5.826;2023-11-19T23:03:13;1.67;;;0.60;;
26562;SDS011;14217;50.986;5.826;2023-11-19T23:08:16;2.30;;;0.50;;
26562;SDS011;14217;50.986;5.826;2023-11-19T23:13:18;1.52;;;0.50;;
26562;SDS011;14217;50.986;5.826;2023-11-19T23:18:20;0.35;;;0.35;;
26562;SDS011;14217;50.986;5.826;2023-11-19T23:23:23;1.38;;;0.30;;
26562;SDS011;14217;50.986;5.826;2023-11-19T23:28:26;1.77;;;0.50;;
26562;SDS011;14217;50.986;5.826;2023-11-19T23:33:28;1.85;;;0.68;;
26562;SDS011;14217;50.986;5.826;2023-11-19T23:38:30;2.10;;;0.50;;
26562;SDS011;14217;50.986;5.826;2023-11-19T23:43:32;1.50;;;0.38;;
26562;SDS011;14217;50.986;5.826;2023-11-19T23:48:35;1.83;;;0.55;;
26562;SDS011;14217;50.986;5.826;2023-11-19T23:53:57;1.70;;;0.30;;
26562;SDS011;14217;50.986;5.826;2023-11-19T23:58:59;1.48;;;0.50;;
